sensor_id;sensor_type;location;lat;lon;timestamp;pressure;altitude;pressure_sealevel;temperature;humidity
71567;BME280;59403;47.456;19.120;2023-02-12T00:00:16;101644.81;;;3.91;99.05
71567;BME280;59403;47.456;19.120;2023-02-12T00:02:43;101650.19;;;4.03;99.00
71567;BME280;59403;47.456;19.120;2023-02-12T00:05:10;101652.91;;;4.02;99.00
71567;BME280;59403;47.456;19.120;2023-02-12T00:07:38;101645.22;;;3.83;100.00
71567;BME280;59403;47.456;19.120;2023-02-12T00:10:06;101655.69;;;3.99;99.92
71567;BME280;59403;47.456;19.120;2023-02-12T00:12:36;101659.50;;;3.78;100.00
71567;BME280;59403;47.456;19.120;2023-02-12T00:15:03;101657.37;;;3.84;100.00
71567;BME280;59403;47.456;19.120;2023-02-12T00:17:30;101653.00;;;3.85;100.00
71567;BME280;59403;47.456;19.120;2023-02-12T00:19:57;101657.16;;;3.89;100.00
71567;BME280;59403;47.456;19.120;2023-02-12T00:22:24;101653.34;;;3.94;100.00
71567;BME280;59403;47.456;19.120;2023-02-12T00:24:53;101647.66;;;3.86;100.00
71567;BME280;59403;47.456;19.120;2023-02-12T00:27:21;101650.53;;;3.82;100.00
71567;BME280;59403;47.456;19.120;2023-02-12T00:29:47;101648.34;;;3.90;100.00
71567;BME280;59403;47.456;19.120;2023-02-12T00:32:14;101650.78;;;3.77;100.00
71567;BME280;59403;47.456;19.120;2023-02-12T00:34:44;101659.94;;;3.86;100.00
71567;BME280;59403;47.456;19.120;2023-02-12T00:37:11;101648.34;;;3.90;100.00
71567;BME280;59403;47.456;19.120;2023-02-12T00:39:38;101652.41;;;3.80;100.00
71567;BME280;59403;47.456;19.120;2023-02-12T00:42:06;101647.16;;;3.80;100.00
71567;BME280;59403;47.456;19.120;2023-02-12T00:44:33;101646.38;;;3.78;100.00
71567;BME280;59403;47.456;19.120;2023-02-12T00:47:00;101646.16;;;3.82;100.00
71567;BME280;59403;47.456;19.120;2023-02-12T00:49:27;101637.53;;;3.96;100.00
71567;BME280;59403;47.456;19.120;2023-02-12T00:51:58;101644.13;;;4.03;100.00
71567;BME280;59403;47.456;19.120;2023-02-12T00:54:25;101655.44;;;3.88;100.00
71567;BME280;59403;47.456;19.120;2023-02-12T00:56:53;101640.25;;;3.94;100.00
71567;BME280;59403;47.456;19.120;2023-02-12T00:59:21;101636.59;;;3.81;100.00
71567;BME280;59403;47.456;19.120;2023-02-12T01:01:48;101650.78;;;3.77;100.00
71567;BME280;59403;47.456;19.120;2023-02-12T01:04:16;101657.91;;;3.91;100.00
71567;BME280;59403;47.456;19.120;2023-02-12T01:06:43;101659.94;;;3.86;100.00
71567;BME280;59403;47.456;19.120;2023-02-12T01:09:09;101659.00;;;3.87;100.00
71567;BME280;59403;47.456;19.120;2023-02-12T01:11:36;101651.56;;;3.95;100.00
71567;BME280;59403;47.456;19.120;2023-02-12T01:14:04;101661.44;;;3.74;100.00
71567;BME280;59403;47.456;19.120;2023-02-12T01:16:32;101656.09;;;3.76;100.00
71567;BME280;59403;47.456;19.120;2023-02-12T01:19:02;101654.22;;;3.62;100.00
71567;BME280;59403;47.456;19.120;2023-02-12T01:21:31;101669.62;;;3.68;100.00
71567;BME280;59403;47.456;19.120;2023-02-12T01:23:59;101652.91;;;3.86;100.00
71567;BME280;59403;47.456;19.120;2023-02-12T01:26:28;101652.03;;;3.70;100.00
71567;BME280;59403;47.456;19.120;2023-02-12T01:28:56;101639.56;;;3.75;100.00
71567;BME280;59403;47.456;19.120;2023-02-12T01:31:25;101653.84;;;3.70;100.00
71567;BME280;59403;47.456;19.120;2023-02-12T01:33:56;101661.00;;;3.66;100.00
71567;BME280;59403;47.456;19.120;2023-02-12T01:36:24;101644.59;;;3.63;100.00
71567;BME280;59403;47.456;19.120;2023-02-12T01:38:51;101640.94;;;3.49;100.00
71567;BME280;59403;47.456;19.120;2023-02-12T01:41:19;101662.62;;;3.36;100.00
71567;BME280;59403;47.456;19.120;2023-02-12T01:44:05;101666.41;;;3.30;100.00
71567;BME280;59403;47.456;19.120;2023-02-12T01:46:32;101665.72;;;3.27;100.00
71567;BME280;59403;47.456;19.120;2023-02-12T01:49:02;101662.03;;;3.14;100.00
71567;BME280;59403;47.456;19.120;2023-02-12T01:51:31;101664.41;;;3.18;100.00
71567;BME280;59403;47.456;19.120;2023-02-12T01:54:02;101668.88;;;3.16;100.00
71567;BME280;59403;47.456;19.120;2023-02-12T01:56:30;101667.50;;;3.26;100.00
71567;BME280;59403;47.456;19.120;2023-02-12T01:58:58;101662.62;;;3.36;100.00
71567;BME280;59403;47.456;19.120;2023-02-12T02:04:47;101660.34;;;3.13;100.00
71567;BME280;59403;47.456;19.120;2023-02-12T02:07:15;101665.16;;;3.37;100.00
71567;BME280;59403;47.456;19.120;2023-02-12T02:09:43;101661.56;;;3.56;100.00
71567;BME280;59403;47.456;19.120;2023-02-12T02:12:10;101667.00;;;3.35;100.00
71567;BME280;59403;47.456;19.120;2023-02-12T02:14:58;101663.25;;;3.24;100.00
71567;BME280;59403;47.456;19.120;2023-02-12T02:17:46;101669.09;;;3.29;100.00
71567;BME280;59403;47.456;19.120;2023-02-12T02:20:40;101682.38;;;3.09;100.00
71567;BME280;59403;47.456;19.120;2023-02-12T02:23:39;101677.75;;;3.14;100.00
71567;BME280;59403;47.456;19.120;2023-02-12T02:26:31;101675.06;;;3.15;100.00
71567;BME280;59403;47.456;19.120;2023-02-12T02:29:16;101690.44;;;3.21;100.00
71567;BME280;59403;47.456;19.120;2023-02-12T02:31:51;101686.47;;;3.14;100.00
71567;BME280;59403;47.456;19.120;2023-02-12T02:34:27;101687.19;;;3.16;100.00
71567;BME280;59403;47.456;19.120;2023-02-12T02:37:00;101685.13;;;3.06;100.00
71567;BME280;59403;47.456;19.120;2023-02-12T02:39:35;101684.69;;;2.98;100.00
71567;BME280;59403;47.456;19.120;2023-02-12T02:42:08;101683.06;;;3.12;100.00
71567;BME280;59403;47.456;19.120;2023-02-12T02:44:38;101690.81;;;3.31;100.00
71567;BME280;59403;47.456;19.120;2023-02-12T02:47:13;101684.50;;;3.35;100.00
71567;BME280;59403;47.456;19.120;2023-02-12T02:49:43;101677.41;;;3.37;100.00
71567;BME280;59403;47.456;19.120;2023-02-12T02:52:15;101686.94;;;3.38;100.00
71567;BME280;59403;47.456;19.120;2023-02-12T02:54:45;101693.25;;;3.34;100.00
71567;BME280;59403;47.456;19.120;2023-02-12T02:57:16;101679.12;;;3.54;100.00
71567;BME280;59403;47.456;19.120;2023-02-12T02:59:48;101685.75;;;3.61;100.00
71567;BME280;59403;47.456;19.120;2023-02-12T03:02:21;101695.06;;;3.33;100.00
71567;BME280;59403;47.456;19.120;2023-02-12T03:04:52;101701.50;;;3.43;100.00
71567;BME280;59403;47.456;19.120;2023-02-12T03:07:26;101709.66;;;3.37;100.00
71567;BME280;59403;47.456;19.120;2023-02-12T03:09:58;101717.16;;;3.28;100.00
71567;BME280;59403;47.456;19.120;2023-02-12T03:12:30;101707.50;;;3.28;100.00
71567;BME280;59403;47.456;19.120;2023-02-12T03:15:05;101714.00;;;3.04;100.00
71567;BME280;59403;47.456;19.120;2023-02-12T03:17:38;101714.47;;;3.12;100.00
71567;BME280;59403;47.456;19.120;2023-02-12T03:20:11;101723.16;;;3.13;100.00
71567;BME280;59403;47.456;19.120;2023-02-12T03:22:43;101721.28;;;3.32;100.00
71567;BME280;59403;47.456;19.120;2023-02-12T03:25:13;101720.16;;;3.20;100.00
71567;BME280;59403;47.456;19.120;2023-02-12T03:27:44;101722.53;;;3.25;100.00
71567;BME280;59403;47.456;19.120;2023-02-12T03:30:13;101726.69;;;3.29;100.00
71567;BME280;59403;47.456;19.120;2023-02-12T03:32:46;101730.16;;;3.29;100.00
71567;BME280;59403;47.456;19.120;2023-02-12T03:35:20;101728.16;;;3.34;100.00
71567;BME280;59403;47.456;19.120;2023-02-12T03:37:54;101739.16;;;3.24;100.00
71567;BME280;59403;47.456;19.120;2023-02-12T03:40:27;101749.94;;;3.35;100.00
71567;BME280;59403;47.456;19.120;2023-02-12T03:43:01;101742.41;;;3.29;100.00
71567;BME280;59403;47.456;19.120;2023-02-12T03:45:37;101749.78;;;3.38;100.00
71567;BME280;59403;47.456;19.120;2023-02-12T03:48:11;101743.25;;;3.29;100.00
71567;BME280;59403;47.456;19.120;2023-02-12T03:50:45;101749.25;;;3.31;100.00
71567;BME280;59403;47.456;19.120;2023-02-12T03:53:13;101746.31;;;3.20;100.00
71567;BME280;59403;47.456;19.120;2023-02-12T03:55:42;101763.06;;;3.18;100.00
71567;BME280;59403;47.456;19.120;2023-02-12T03:58:15;101765.19;;;3.10;100.00
71567;BME280;59403;47.456;19.120;2023-02-12T04:00:45;101764.88;;;2.99;100.00
71567;BME280;59403;47.456;19.120;2023-02-12T04:03:13;101766.47;;;2.84;100.00
71567;BME280;59403;47.456;19.120;2023-02-12T04:05:40;101770.25;;;2.96;100.00
71567;BME280;59403;47.456;19.120;2023-02-12T04:08:08;101779.91;;;2.77;100.00
71567;BME280;59403;47.456;19.120;2023-02-12T04:10:48;101782.25;;;2.83;100.00
71567;BME280;59403;47.456;19.120;2023-02-12T04:13:23;101780.94;;;2.91;100.00
71567;BME280;59403;47.456;19.120;2023-02-12T04:16:02;101795.34;;;3.00;100.00
71567;BME280;59403;47.456;19.120;2023-02-12T04:18:39;101805.81;;;3.00;100.00
71567;BME280;59403;47.456;19.120;2023-02-12T04:21:12;101807.81;;;2.95;100.00
71567;BME280;59403;47.456;19.120;2023-02-12T04:23:47;101804.97;;;2.99;100.00
71567;BME280;59403;47.456;19.120;2023-02-12T04:26:23;101810.50;;;2.75;100.00
71567;BME280;59403;47.456;19.120;2023-02-12T04:28:59;101812.41;;;2.90;100.00
71567;BME280;59403;47.456;19.120;2023-02-12T04:31:33;101818.44;;;2.92;100.00
71567;BME280;59403;47.456;19.120;2023-02-12T04:34:09;101811.62;;;2.88;100.00
71567;BME280;59403;47.456;19.120;2023-02-12T04:36:44;101824.91;;;2.83;100.00
71567;BME280;59403;47.456;19.120;2023-02-12T04:39:17;101823.16;;;2.84;100.00
71567;BME280;59403;47.456;19.120;2023-02-12T04:41:45;101825.56;;;2.70;100.00
71567;BME280;59403;47.456;19.120;2023-02-12T04:44:14;101822.84;;;2.54;100.00
71567;BME280;59403;47.456;19.120;2023-02-12T04:46:41;101833.03;;;2.60;100.00
71567;BME280;59403;47.456;19.120;2023-02-12T04:49:13;101840.16;;;2.57;100.00
71567;BME280;59403;47.456;19.120;2023-02-12T04:51:41;101839.00;;;2.44;100.00
71567;BME280;59403;47.456;19.120;2023-02-12T04:54:07;101845.88;;;2.46;100.00
71567;BME280;59403;47.456;19.120;2023-02-12T04:56:34;101848.62;;;2.43;100.00
71567;BME280;59403;47.456;19.120;2023-02-12T04:59:01;101845.88;;;2.65;100.00
71567;BME280;59403;47.456;19.120;2023-02-12T05:01:29;101851.09;;;2.46;100.00
71567;BME280;59403;47.456;19.120;2023-02-12T05:03:55;101856.38;;;2.26;100.00
71567;BME280;59403;47.456;19.120;2023-02-12T05:06:24;101867.28;;;2.15;100.00
71567;BME280;59403;47.456;19.120;2023-02-12T05:08:51;101861.84;;;2.01;100.00
71567;BME280;59403;47.456;19.120;2023-02-12T05:11:18;101874.44;;;1.92;100.00
71567;BME280;59403;47.456;19.120;2023-02-12T05:13:47;101870.41;;;1.85;100.00
71567;BME280;59403;47.456;19.120;2023-02-12T05:16:15;101883.12;;;1.72;100.00
71567;BME280;59403;47.456;19.120;2023-02-12T05:18:42;101897.31;;;1.67;100.00
71567;BME280;59403;47.456;19.120;2023-02-12T05:21:09;101896.62;;;1.62;100.00
71567;BME280;59403;47.456;19.120;2023-02-12T05:23:39;101897.75;;;1.56;100.00
71567;BME280;59403;47.456;19.120;2023-02-12T05:26:09;101898.06;;;1.49;100.00
71567;BME280;59403;47.456;19.120;2023-02-12T05:28:36;101904.56;;;1.39;100.00
71567;BME280;59403;47.456;19.120;2023-02-12T05:31:05;101912.63;;;1.33;100.00
71567;BME280;59403;47.456;19.120;2023-02-12T05:33:33;101915.50;;;1.27;100.00
71567;BME280;59403;47.456;19.120;2023-02-12T05:36:03;101912.22;;;1.22;100.00
71567;BME280;59403;47.456;19.120;2023-02-12T05:38:30;101909.84;;;1.15;100.00
71567;BME280;59403;47.456;19.120;2023-02-12T05:41:02;101903.09;;;1.10;100.00
71567;BME280;59403;47.456;19.120;2023-02-12T05:43:32;101913.59;;;1.08;100.00
71567;BME280;59403;47.456;19.120;2023-02-12T05:45:59;101920.63;;;1.06;100.00
71567;BME280;59403;47.456;19.120;2023-02-12T05:48:33;101922.50;;;1.03;100.00
71567;BME280;59403;47.456;19.120;2023-02-12T05:51:04;101919.06;;;1.02;100.00
71567;BME280;59403;47.456;19.120;2023-02-12T05:53:42;101925.25;;;1.00;100.00
71567;BME280;59403;47.456;19.120;2023-02-12T05:56:14;101950.53;;;0.98;100.00
71567;BME280;59403;47.456;19.120;2023-02-12T05:58:43;101942.78;;;0.96;100.00
71567;BME280;59403;47.456;19.120;2023-02-12T06:01:18;101942.03;;;0.93;100.00
71567;BME280;59403;47.456;19.120;2023-02-12T06:03:49;101953.47;;;0.89;100.00
71567;BME280;59403;47.456;19.120;2023-02-12T06:06:16;101960.62;;;0.84;100.00
71567;BME280;59403;47.456;19.120;2023-02-12T06:08:46;101971.12;;;0.82;100.00
71567;BME280;59403;47.456;19.120;2023-02-12T06:11:16;101977.25;;;0.81;100.00
71567;BME280;59403;47.456;19.120;2023-02-12T06:13:43;101979.94;;;0.78;100.00
71567;BME280;59403;47.456;19.120;2023-02-12T06:16:16;101986.09;;;0.77;100.00
71567;BME280;59403;47.456;19.120;2023-02-12T06:18:43;101993.09;;;0.75;100.00
71567;BME280;59403;47.456;19.120;2023-02-12T06:21:10;101973.31;;;0.70;100.00
71567;BME280;59403;47.456;19.120;2023-02-12T06:23:40;101990.63;;;0.72;100.00
71567;BME280;59403;47.456;19.120;2023-02-12T06:26:07;101988.63;;;0.79;100.00
71567;BME280;59403;47.456;19.120;2023-02-12T06:28:35;101988.69;;;0.77;100.00
71567;BME280;59403;47.456;19.120;2023-02-12T06:31:03;101977.41;;;0.77;100.00
71567;BME280;59403;47.456;19.120;2023-02-12T06:33:30;101992.44;;;0.70;100.00
71567;BME280;59403;47.456;19.120;2023-02-12T06:35:57;101990.69;;;0.71;100.00
71567;BME280;59403;47.456;19.120;2023-02-12T06:38:24;102006.25;;;0.72;100.00
71567;BME280;59403;47.456;19.120;2023-02-12T06:40:52;101988.06;;;0.71;100.00
71567;BME280;59403;47.456;19.120;2023-02-12T06:43:19;102005.47;;;0.70;100.00
71567;BME280;59403;47.456;19.120;2023-02-12T06:45:48;102015.88;;;0.70;100.00
71567;BME280;59403;47.456;19.120;2023-02-12T06:48:15;102021.03;;;0.72;100.00
71567;BME280;59403;47.456;19.120;2023-02-12T06:50:42;102023.44;;;0.78;100.00
71567;BME280;59403;47.456;19.120;2023-02-12T06:53:09;102028.53;;;0.81;100.00
71567;BME280;59403;47.456;19.120;2023-02-12T06:55:36;102031.94;;;0.83;100.00
71567;BME280;59403;47.456;19.120;2023-02-12T06:58:03;102030.97;;;0.85;100.00
71567;BME280;59403;47.456;19.120;2023-02-12T07:00:30;102036.19;;;0.85;100.00
71567;BME280;59403;47.456;19.120;2023-02-12T07:02:58;102042.12;;;0.89;100.00
71567;BME280;59403;47.456;19.120;2023-02-12T07:05:25;102040.41;;;0.89;100.00
71567;BME280;59403;47.456;19.120;2023-02-12T07:07:52;102043.81;;;0.91;100.00
71567;BME280;59403;47.456;19.120;2023-02-12T07:10:19;102048.91;;;0.94;100.00
71567;BME280;59403;47.456;19.120;2023-02-12T07:12:46;102056.50;;;1.00;100.00
71567;BME280;59403;47.456;19.120;2023-02-12T07:15:13;102054.59;;;1.05;100.00
71567;BME280;59403;47.456;19.120;2023-02-12T07:17:39;102061.38;;;1.09;100.00
71567;BME280;59403;47.456;19.120;2023-02-12T07:20:09;102062.91;;;1.15;100.00
71567;BME280;59403;47.456;19.120;2023-02-12T07:22:36;102073.13;;;1.21;100.00
71567;BME280;59403;47.456;19.120;2023-02-12T07:25:03;102077.91;;;1.33;100.00
71567;BME280;59403;47.456;19.120;2023-02-12T07:27:30;102080.97;;;1.44;100.00
71567;BME280;59403;47.456;19.120;2023-02-12T07:29:57;102091.16;;;1.50;100.00
71567;BME280;59403;47.456;19.120;2023-02-12T07:32:24;102090.94;;;1.56;100.00
71567;BME280;59403;47.456;19.120;2023-02-12T07:34:50;102089.06;;;1.60;100.00
71567;BME280;59403;47.456;19.120;2023-02-12T07:37:19;102087.22;;;1.62;100.00
71567;BME280;59403;47.456;19.120;2023-02-12T07:39:47;102087.13;;;1.65;100.00
71567;BME280;59403;47.456;19.120;2023-02-12T07:42:14;102094.56;;;1.74;100.00
71567;BME280;59403;47.456;19.120;2023-02-12T07:44:41;102092.03;;;1.94;100.00
71567;BME280;59403;47.456;19.120;2023-02-12T07:47:08;102098.19;;;1.93;100.00
71567;BME280;59403;47.456;19.120;2023-02-12T07:49:35;102106.22;;;2.10;100.00
71567;BME280;59403;47.456;19.120;2023-02-12T07:52:02;102103.94;;;2.22;100.00
71567;BME280;59403;47.456;19.120;2023-02-12T07:54:30;102104.44;;;2.52;100.00
71567;BME280;59403;47.456;19.120;2023-02-12T07:56:57;102118.16;;;2.37;100.00
71567;BME280;59403;47.456;19.120;2023-02-12T07:59:25;102108.09;;;2.48;100.00
71567;BME280;59403;47.456;19.120;2023-02-12T08:01:53;102117.41;;;2.55;100.00
71567;BME280;59403;47.456;19.120;2023-02-12T08:04:23;102124.28;;;2.78;100.00
71567;BME280;59403;47.456;19.120;2023-02-12T08:06:53;102113.19;;;2.71;100.00
71567;BME280;59403;47.456;19.120;2023-02-12T08:09:22;102117.09;;;2.83;100.00
71567;BME280;59403;47.456;19.120;2023-02-12T08:11:51;102121.25;;;2.87;100.00
71567;BME280;59403;47.456;19.120;2023-02-12T08:14:20;102122.66;;;2.95;100.00
71567;BME280;59403;47.456;19.120;2023-02-12T08:16:48;102121.63;;;3.18;100.00
71567;BME280;59403;47.456;19.120;2023-02-12T08:19:15;102117.59;;;3.11;100.00
71567;BME280;59403;47.456;19.120;2023-02-12T08:21:43;102121.91;;;3.12;100.00
71567;BME280;59403;47.456;19.120;2023-02-12T08:24:12;102128.78;;;3.14;100.00
71567;BME280;59403;47.456;19.120;2023-02-12T08:26:39;102133.56;;;3.23;100.00
71567;BME280;59403;47.456;19.120;2023-02-12T08:29:09;102132.91;;;3.38;100.00
71567;BME280;59403;47.456;19.120;2023-02-12T08:31:37;102135.37;;;3.41;100.00
71567;BME280;59403;47.456;19.120;2023-02-12T08:34:05;102133.84;;;3.56;100.00
71567;BME280;59403;47.456;19.120;2023-02-12T08:36:36;102137.44;;;3.54;100.00
71567;BME280;59403;47.456;19.120;2023-02-12T08:39:05;102129.81;;;3.49;100.00
71567;BME280;59403;47.456;19.120;2023-02-12T08:41:32;102127.19;;;3.49;100.00
71567;BME280;59403;47.456;19.120;2023-02-12T08:44:01;102127.84;;;3.54;100.00
71567;BME280;59403;47.456;19.120;2023-02-12T08:46:31;102140.22;;;3.69;100.00
71567;BME280;59403;47.456;19.120;2023-02-12T08:49:00;102143.69;;;3.88;100.00
71567;BME280;59403;47.456;19.120;2023-02-12T08:51:29;102149.06;;;4.04;100.00
71567;BME280;59403;47.456;19.120;2023-02-12T08:53:58;102151.31;;;3.93;100.00
71567;BME280;59403;47.456;19.120;2023-02-12T08:56:27;102153.94;;;4.11;100.00
71567;BME280;59403;47.456;19.120;2023-02-12T08:58:55;102146.03;;;4.30;100.00
71567;BME280;59403;47.456;19.120;2023-02-12T09:01:25;102154.06;;;4.27;100.00
71567;BME280;59403;47.456;19.120;2023-02-12T09:04:05;102154.63;;;5.19;100.00
71567;BME280;59403;47.456;19.120;2023-02-12T09:06:34;102154.63;;;5.19;100.00
71567;BME280;59403;47.456;19.120;2023-02-12T09:09:01;102165.81;;;4.54;100.00
71567;BME280;59403;47.456;19.120;2023-02-12T09:11:29;102172.31;;;4.64;100.00
71567;BME280;59403;47.456;19.120;2023-02-12T09:13:57;102173.00;;;4.68;100.00
71567;BME280;59403;47.456;19.120;2023-02-12T09:16:25;102175.66;;;4.85;100.00
71567;BME280;59403;47.456;19.120;2023-02-12T09:18:52;102183.06;;;5.11;100.00
71567;BME280;59403;47.456;19.120;2023-02-12T09:21:21;102181.09;;;5.31;100.00
71567;BME280;59403;47.456;19.120;2023-02-12T09:23:48;102190.94;;;5.28;100.00
71567;BME280;59403;47.456;19.120;2023-02-12T09:26:17;102188.34;;;5.43;100.00
71567;BME280;59403;47.456;19.120;2023-02-12T09:28:46;102192.44;;;5.49;100.00
71567;BME280;59403;47.456;19.120;2023-02-12T09:31:15;102195.84;;;5.66;100.00
71567;BME280;59403;47.456;19.120;2023-02-12T09:33:43;102199.78;;;5.75;100.00
71567;BME280;59403;47.456;19.120;2023-02-12T09:36:12;102197.81;;;5.96;98.81
71567;BME280;59403;47.456;19.120;2023-02-12T09:38:41;102194.84;;;6.02;98.52
71567;BME280;59403;47.456;19.120;2023-02-12T09:41:30;102195.00;;;6.30;95.16
71567;BME280;59403;47.456;19.120;2023-02-12T09:44:06;102195.69;;;6.33;94.55
71567;BME280;59403;47.456;19.120;2023-02-12T09:46:37;102194.00;;;6.32;95.16
71567;BME280;59403;47.456;19.120;2023-02-12T09:49:10;102189.47;;;6.50;93.01
71567;BME280;59403;47.456;19.120;2023-02-12T09:51:43;102191.19;;;6.80;90.76
71567;BME280;59403;47.456;19.120;2023-02-12T09:54:15;102195.87;;;6.75;89.50
71567;BME280;59403;47.456;19.120;2023-02-12T09:56:46;102196.59;;;6.93;90.02
71567;BME280;59403;47.456;19.120;2023-02-12T09:59:22;102197.13;;;6.84;90.13
71567;BME280;59403;47.456;19.120;2023-02-12T10:01:54;102203.91;;;6.88;90.52
71567;BME280;59403;47.456;19.120;2023-02-12T10:04:22;102202.06;;;7.04;90.06
71567;BME280;59403;47.456;19.120;2023-02-12T10:06:58;102209.34;;;7.15;89.25
71567;BME280;59403;47.456;19.120;2023-02-12T10:09:46;102215.03;;;7.23;87.61
71567;BME280;59403;47.456;19.120;2023-02-12T10:12:22;102202.50;;;7.40;83.41
71567;BME280;59403;47.456;19.120;2023-02-12T10:15:05;102191.88;;;7.84;80.32
71567;BME280;59403;47.456;19.120;2023-02-12T10:17:41;102197.56;;;7.78;81.58
71567;BME280;59403;47.456;19.120;2023-02-12T10:20:30;102205.50;;;8.04;78.38
71567;BME280;59403;47.456;19.120;2023-02-12T10:23:10;102200.63;;;7.98;78.65
71567;BME280;59403;47.456;19.120;2023-02-12T10:25:48;102214.03;;;7.95;77.96
71567;BME280;59403;47.456;19.120;2023-02-12T10:28:17;102206.66;;;8.15;76.82
71567;BME280;59403;47.456;19.120;2023-02-12T10:30:48;102210.00;;;8.17;76.43
71567;BME280;59403;47.456;19.120;2023-02-12T10:33:24;102210.22;;;8.14;75.92
71567;BME280;59403;47.456;19.120;2023-02-12T10:35:55;102220.50;;;8.32;76.09
71567;BME280;59403;47.456;19.120;2023-02-12T10:38:27;102227.66;;;8.57;74.79
71567;BME280;59403;47.456;19.120;2023-02-12T10:40:57;102231.38;;;8.54;74.11
71567;BME280;59403;47.456;19.120;2023-02-12T10:43:26;102236.50;;;8.43;73.51
71567;BME280;59403;47.456;19.120;2023-02-12T10:45:54;102235.25;;;8.49;73.82
71567;BME280;59403;47.456;19.120;2023-02-12T10:48:23;102229.34;;;8.31;74.99
71567;BME280;59403;47.456;19.120;2023-02-12T10:51:10;102229.22;;;8.47;74.84
71567;BME280;59403;47.456;19.120;2023-02-12T10:53:44;102225.38;;;8.38;75.32
71567;BME280;59403;47.456;19.120;2023-02-12T10:56:15;102223.69;;;8.37;74.36
71567;BME280;59403;47.456;19.120;2023-02-12T10:58:54;102228.91;;;8.25;74.20
71567;BME280;59403;47.456;19.120;2023-02-12T11:01:25;102225.16;;;8.41;73.29
71567;BME280;59403;47.456;19.120;2023-02-12T11:03:54;102228.22;;;8.21;74.93
71567;BME280;59403;47.456;19.120;2023-02-12T11:06:23;102221.16;;;8.36;74.59
71567;BME280;59403;47.456;19.120;2023-02-12T11:08:52;102221.16;;;8.62;73.15
71567;BME280;59403;47.456;19.120;2023-02-12T11:11:22;102217.81;;;8.73;72.09
71567;BME280;59403;47.456;19.120;2023-02-12T11:13:56;102223.31;;;8.70;73.07
71567;BME280;59403;47.456;19.120;2023-02-12T11:16:29;102216.22;;;8.44;74.01
71567;BME280;59403;47.456;19.120;2023-02-12T11:18:58;102219.66;;;8.32;74.88
71567;BME280;59403;47.456;19.120;2023-02-12T11:21:25;102216.16;;;8.17;75.83
71567;BME280;59403;47.456;19.120;2023-02-12T11:23:52;102220.88;;;8.12;76.14
71567;BME280;59403;47.456;19.120;2023-02-12T11:26:26;102217.31;;;7.99;77.17
71567;BME280;59403;47.456;19.120;2023-02-12T11:28:55;102221.94;;;7.95;77.47
71567;BME280;59403;47.456;19.120;2023-02-12T11:31:23;102213.63;;;8.01;76.68
71567;BME280;59403;47.456;19.120;2023-02-12T11:34:07;102214.69;;;7.99;76.41
71567;BME280;59403;47.456;19.120;2023-02-12T11:36:36;102221.72;;;8.13;75.82
71567;BME280;59403;47.456;19.120;2023-02-12T11:39:04;102216.16;;;8.17;75.67
71567;BME280;59403;47.456;19.120;2023-02-12T11:41:37;102225.12;;;8.15;76.19
71567;BME280;59403;47.456;19.120;2023-02-12T11:44:09;102211.06;;;8.14;75.92
71567;BME280;59403;47.456;19.120;2023-02-12T11:46:38;102222.78;;;8.24;75.95
71567;BME280;59403;47.456;19.120;2023-02-12T11:49:06;102216.25;;;8.16;75.12
71567;BME280;59403;47.456;19.120;2023-02-12T11:51:35;102226.72;;;8.31;75.20
71567;BME280;59403;47.456;19.120;2023-02-12T11:54:17;102222.91;;;8.49;75.28
71567;BME280;59403;47.456;19.120;2023-02-12T11:56:47;102213.53;;;8.58;73.75
71567;BME280;59403;47.456;19.120;2023-02-12T11:59:30;102224.25;;;8.42;74.10
71567;BME280;59403;47.456;19.120;2023-02-12T12:02:02;102223.37;;;8.42;74.08
71567;BME280;59403;47.456;19.120;2023-02-12T12:04:34;102225.28;;;8.66;72.64
71567;BME280;59403;47.456;19.120;2023-02-12T12:07:09;102217.63;;;8.49;72.55
71567;BME280;59403;47.456;19.120;2023-02-12T12:09:41;102217.06;;;8.71;72.51
71567;BME280;59403;47.456;19.120;2023-02-12T12:12:15;102211.94;;;8.55;73.37
71567;BME280;59403;47.456;19.120;2023-02-12T12:14:47;102209.28;;;8.55;72.59
71567;BME280;59403;47.456;19.120;2023-02-12T12:17:40;102210.41;;;8.39;73.41
71567;BME280;59403;47.456;19.120;2023-02-12T12:20:11;102202.69;;;8.36;74.13
71567;BME280;59403;47.456;19.120;2023-02-12T12:22:43;102191.53;;;8.17;74.80
71567;BME280;59403;47.456;19.120;2023-02-12T12:25:25;102201.38;;;8.15;75.26
71567;BME280;59403;47.456;19.120;2023-02-12T12:28:04;102200.53;;;8.14;75.29
71567;BME280;59403;47.456;19.120;2023-02-12T12:30:46;102195.38;;;7.98;76.19
71567;BME280;59403;47.456;19.120;2023-02-12T12:33:17;102202.63;;;7.81;77.21
71567;BME280;59403;47.456;19.120;2023-02-12T12:35:57;102203.59;;;7.66;78.12
71567;BME280;59403;47.456;19.120;2023-02-12T12:38:36;102200.28;;;7.62;78.27
71567;BME280;59403;47.456;19.120;2023-02-12T12:41:17;102200.94;;;7.66;78.17
71567;BME280;59403;47.456;19.120;2023-02-12T12:43:59;102205.34;;;7.51;79.12
71567;BME280;59403;47.456;19.120;2023-02-12T12:46:53;102200.09;;;7.93;77.69
71567;BME280;59403;47.456;19.120;2023-02-12T12:49:43;102210.28;;;7.57;79.81
71567;BME280;59403;47.456;19.120;2023-02-12T12:52:43;102201.31;;;7.74;79.71
71567;BME280;59403;47.456;19.120;2023-02-12T12:55:25;102200.38;;;7.61;80.73
71567;BME280;59403;47.456;19.120;2023-02-12T12:58:04;102206.97;;;7.54;80.27
71567;BME280;59403;47.456;19.120;2023-02-12T13:00:57;102212.31;;;7.66;79.97
71567;BME280;59403;47.456;19.120;2023-02-12T13:03:58;102206.97;;;7.54;80.78
71567;BME280;59403;47.456;19.120;2023-02-12T13:06:37;102217.31;;;7.57;80.18